This is the latest recevied weather packets stored in our database for station/object OM5AST-13. If no packets are shown the sender has not sent any weather packets the latest 10 day(s).
| Time | Temp. | Humidity | Pressure | Rain* | Wind** | Luminosity | Snow |
|---|---|---|---|---|---|---|---|
| 1777590235 | 11.11° C | 35% | - | 0 mm | - | 0 W/m² | - |
| 1777589036 | 11.11° C | 34% | - | 0 mm | - | 0 W/m² | - |
| 1777587835 | 11.11° C | 34% | - | 0 mm | - | 0 W/m² | - |
| 1777586635 | 11.11° C | 33% | - | 0 mm | - | 0 W/m² | - |
| 1777585435 | 11.11° C | 33% | - | 0 mm | - | 0 W/m² | - |
| 1777584236 | 11.11° C | 33% | - | 0 mm | - | 0 W/m² | - |
| 1777583036 | 11.67° C | 32% | - | 0 mm | - | 0 W/m² | - |
| 1777581836 | 11.67° C | 32% | - | 0 mm | - | 0 W/m² | - |
| 1777580635 | 11.67° C | 32% | - | 0 mm | - | 0 W/m² | - |
| 1777579436 | 11.11° C | 32% | - | 0 mm | - | 0 W/m² | - |
| 1777578235 | 11.67° C | 32% | - | 0 mm | - | 0 W/m² | - |
| 1777577035 | 11.67° C | 32% | - | 0 mm | - | 0 W/m² | - |
| 1777575836 | 12.22° C | 31% | - | 0 mm | - | 0 W/m² | - |
| 1777574636 | 13.33° C | 29% | - | 0 mm | - | 0 W/m² | - |
| 1777573435 | 14.44° C | 26% | - | 0 mm | - | 0 W/m² | - |
| 1777572235 | 15.56° C | 24% | - | 0 mm | - | 0 W/m² | - |
| 1777571036 | 18.33° C | 21% | - | 0 mm | - | 0 W/m² | - |
| 1777569835 | 19.44° C | 19% | - | 0 mm | - | 0 W/m² | - |
| 1777568635 | 18.89° C | 17% | - | 0 mm | - | 0 W/m² | - |
| 1777567435 | 19.44° C | 20% | - | 0 mm | - | 0 W/m² | - |
| 1777566236 | 18.33° C | 21% | - | 0 mm | - | 0 W/m² | - |
| 1777565035 | 17.78° C | 22% | - | 0 mm | - | 0 W/m² | - |
| 1777563835 | 18.33° C | 22% | - | 0 mm | - | 0 W/m² | - |
| 1777562635 | 18.89° C | 22% | - | 0 mm | - | 0 W/m² | - |
| 1777561435 | 19.44° C | 23% | - | 0 mm | - | 0 W/m² | - |
* Rain latest hour (hover to see other rain measurements)
** Current wind speed in m/s (hover to see current wind gust speed)